Cedar Crest, New Mexico
Current Conditions -  °F | °C
As of 11:52 PM on Sunday 23 Nov 2014 (Local Time) from KABQ Reporting Station
Clear Clear  
Wind Chill: 25°   Ceiling: Unl
Heat Index: 34°   Visibility: 10mi
Dew Point: 11°   Wind: 14mph
Humidity: 38%   Direction: 330°NNW
Pressure: 30.09"   Gusts: 18mph
Location:  35.11°N, 106.38°W
Report Text: KABQ 240652Z 33012G16KT 10SM CLR 01/M12 A3009 RMK AO2 SLP180 T00111117 401000006
Loading
Personal Weather Stations






























Interactive Weather Map New forecast layout! Learn more

10-Day Weather Forecast

Advertisements
Track Severe Weather on mobile